sensor_id;sensor_type;location;lat;lon;timestamp;temperature;humidity
2751;DHT22;1383;48.362;10.908;2022-11-14T00:00:59;5.60;90.70
2751;DHT22;1383;48.362;10.908;2022-11-14T00:03:25;5.60;91.20
2751;DHT22;1383;48.362;10.908;2022-11-14T00:05:52;5.60;91.00
2751;DHT22;1383;48.362;10.908;2022-11-14T00:08:21;5.60;91.30
2751;DHT22;1383;48.362;10.908;2022-11-14T00:10:50;5.70;91.40
2751;DHT22;1383;48.362;10.908;2022-11-14T00:13:18;5.60;91.10
2751;DHT22;1383;48.362;10.908;2022-11-14T00:15:48;5.60;91.20
2751;DHT22;1383;48.362;10.908;2022-11-14T00:18:16;5.70;91.30
2751;DHT22;1383;48.362;10.908;2022-11-14T00:20:47;5.60;91.00
2751;DHT22;1383;48.362;10.908;2022-11-14T00:23:13;5.50;91.30
2751;DHT22;1383;48.362;10.908;2022-11-14T00:25:40;5.50;91.60
2751;DHT22;1383;48.362;10.908;2022-11-14T00:28:07;5.50;91.80
2751;DHT22;1383;48.362;10.908;2022-11-14T00:30:34;5.50;92.00
2751;DHT22;1383;48.362;10.908;2022-11-14T00:33:01;5.50;92.10
2751;DHT22;1383;48.362;10.908;2022-11-14T00:35:28;5.60;92.10
2751;DHT22;1383;48.362;10.908;2022-11-14T00:37:54;5.60;92.20
2751;DHT22;1383;48.362;10.908;2022-11-14T00:40:21;5.60;91.60
2751;DHT22;1383;48.362;10.908;2022-11-14T00:42:48;5.60;91.60
2751;DHT22;1383;48.362;10.908;2022-11-14T00:45:15;5.70;91.60
2751;DHT22;1383;48.362;10.908;2022-11-14T00:47:41;5.70;91.60
2751;DHT22;1383;48.362;10.908;2022-11-14T00:50:09;5.70;91.10
2751;DHT22;1383;48.362;10.908;2022-11-14T00:52:36;5.60;91.00
2751;DHT22;1383;48.362;10.908;2022-11-14T00:55:03;5.60;91.20
2751;DHT22;1383;48.362;10.908;2022-11-14T00:57:30;5.70;91.40
2751;DHT22;1383;48.362;10.908;2022-11-14T00:59:56;5.70;91.60
2751;DHT22;1383;48.362;10.908;2022-11-14T01:02:23;5.70;91.80
2751;DHT22;1383;48.362;10.908;2022-11-14T01:04:51;5.80;92.00
2751;DHT22;1383;48.362;10.908;2022-11-14T01:07:18;5.90;91.90
2751;DHT22;1383;48.362;10.908;2022-11-14T01:09:45;5.90;91.40
2751;DHT22;1383;48.362;10.908;2022-11-14T01:12:11;5.90;90.90
2751;DHT22;1383;48.362;10.908;2022-11-14T01:14:39;5.90;90.80
2751;DHT22;1383;48.362;10.908;2022-11-14T01:17:06;5.90;90.60
2751;DHT22;1383;48.362;10.908;2022-11-14T01:19:33;5.80;90.40
2751;DHT22;1383;48.362;10.908;2022-11-14T01:22:00;5.80;90.30
2751;DHT22;1383;48.362;10.908;2022-11-14T01:24:32;5.80;90.50
2751;DHT22;1383;48.362;10.908;2022-11-14T01:26:59;5.80;90.70
2751;DHT22;1383;48.362;10.908;2022-11-14T01:29:27;5.90;90.80
2751;DHT22;1383;48.362;10.908;2022-11-14T01:31:54;6.00;90.90
2751;DHT22;1383;48.362;10.908;2022-11-14T01:34:21;6.00;90.50
2751;DHT22;1383;48.362;10.908;2022-11-14T01:36:48;6.00;89.90
2751;DHT22;1383;48.362;10.908;2022-11-14T01:39:15;6.10;89.00
2751;DHT22;1383;48.362;10.908;2022-11-14T01:41:42;6.10;88.30
2751;DHT22;1383;48.362;10.908;2022-11-14T01:44:16;6.00;87.10
2751;DHT22;1383;48.362;10.908;2022-11-14T01:46:46;6.00;86.50
2751;DHT22;1383;48.362;10.908;2022-11-14T01:51:58;5.90;85.90
2751;DHT22;1383;48.362;10.908;2022-11-14T01:54:31;5.80;87.30
2751;DHT22;1383;48.362;10.908;2022-11-14T01:57:01;5.70;88.00
2751;DHT22;1383;48.362;10.908;2022-11-14T01:59:34;5.70;88.90
2751;DHT22;1383;48.362;10.908;2022-11-14T02:02:25;5.80;89.60
2751;DHT22;1383;48.362;10.908;2022-11-14T02:05:05;5.70;90.20
2751;DHT22;1383;48.362;10.908;2022-11-14T02:07:36;5.80;90.40
2751;DHT22;1383;48.362;10.908;2022-11-14T02:10:07;5.80;90.50
2751;DHT22;1383;48.362;10.908;2022-11-14T02:12:35;5.80;90.50
2751;DHT22;1383;48.362;10.908;2022-11-14T02:15:03;5.70;90.40
2751;DHT22;1383;48.362;10.908;2022-11-14T02:17:31;5.70;90.80
2751;DHT22;1383;48.362;10.908;2022-11-14T02:22:38;5.60;91.10
2751;DHT22;1383;48.362;10.908;2022-11-14T02:25:07;5.70;91.20
2751;DHT22;1383;48.362;10.908;2022-11-14T02:27:35;5.80;91.40
2751;DHT22;1383;48.362;10.908;2022-11-14T02:30:06;5.80;91.10
2751;DHT22;1383;48.362;10.908;2022-11-14T02:32:33;5.80;91.10
2751;DHT22;1383;48.362;10.908;2022-11-14T02:35:20;5.80;90.60
2751;DHT22;1383;48.362;10.908;2022-11-14T02:37:47;5.60;90.30
2751;DHT22;1383;48.362;10.908;2022-11-14T02:40:14;5.60;90.60
2751;DHT22;1383;48.362;10.908;2022-11-14T02:42:40;5.60;90.60
2751;DHT22;1383;48.362;10.908;2022-11-14T02:45:08;5.60;91.00
2751;DHT22;1383;48.362;10.908;2022-11-14T02:47:36;5.60;91.00
2751;DHT22;1383;48.362;10.908;2022-11-14T02:50:03;5.60;91.40
2751;DHT22;1383;48.362;10.908;2022-11-14T02:52:29;5.70;91.50
2751;DHT22;1383;48.362;10.908;2022-11-14T02:54:56;5.70;91.10
2751;DHT22;1383;48.362;10.908;2022-11-14T02:57:23;5.80;91.10
2751;DHT22;1383;48.362;10.908;2022-11-14T02:59:50;5.80;91.10
2751;DHT22;1383;48.362;10.908;2022-11-14T03:02:16;5.90;90.40
2751;DHT22;1383;48.362;10.908;2022-11-14T03:04:43;5.90;90.10
2751;DHT22;1383;48.362;10.908;2022-11-14T03:07:10;5.90;89.50
2751;DHT22;1383;48.362;10.908;2022-11-14T03:09:37;5.90;88.90
2751;DHT22;1383;48.362;10.908;2022-11-14T03:12:04;5.90;88.90
2751;DHT22;1383;48.362;10.908;2022-11-14T03:14:31;6.00;88.80
2751;DHT22;1383;48.362;10.908;2022-11-14T03:16:57;5.90;88.90
2751;DHT22;1383;48.362;10.908;2022-11-14T03:19:24;5.90;89.10
2751;DHT22;1383;48.362;10.908;2022-11-14T03:21:51;6.00;89.00
2751;DHT22;1383;48.362;10.908;2022-11-14T03:24:18;5.90;88.10
2751;DHT22;1383;48.362;10.908;2022-11-14T03:26:45;5.90;88.40
2751;DHT22;1383;48.362;10.908;2022-11-14T03:29:11;5.90;88.20
2751;DHT22;1383;48.362;10.908;2022-11-14T03:31:38;6.00;88.40
2751;DHT22;1383;48.362;10.908;2022-11-14T03:34:05;6.00;88.20
2751;DHT22;1383;48.362;10.908;2022-11-14T03:36:33;6.00;88.00
2751;DHT22;1383;48.362;10.908;2022-11-14T03:39:00;5.80;87.20
2751;DHT22;1383;48.362;10.908;2022-11-14T03:41:27;5.80;89.30
2751;DHT22;1383;48.362;10.908;2022-11-14T03:43:53;5.80;89.10
2751;DHT22;1383;48.362;10.908;2022-11-14T03:46:20;5.70;90.20
2751;DHT22;1383;48.362;10.908;2022-11-14T03:48:47;5.80;90.20
2751;DHT22;1383;48.362;10.908;2022-11-14T03:51:14;5.80;90.10
2751;DHT22;1383;48.362;10.908;2022-11-14T03:53:40;5.90;90.30
2751;DHT22;1383;48.362;10.908;2022-11-14T03:56:07;5.90;90.10
2751;DHT22;1383;48.362;10.908;2022-11-14T03:58:34;5.90;90.00
2751;DHT22;1383;48.362;10.908;2022-11-14T04:01:01;5.90;89.50
2751;DHT22;1383;48.362;10.908;2022-11-14T04:03:29;5.90;90.00
2751;DHT22;1383;48.362;10.908;2022-11-14T04:05:56;5.80;90.00
2751;DHT22;1383;48.362;10.908;2022-11-14T04:08:23;5.80;90.20
2751;DHT22;1383;48.362;10.908;2022-11-14T04:10:49;5.80;90.40
2751;DHT22;1383;48.362;10.908;2022-11-14T04:13:16;5.80;90.40
2751;DHT22;1383;48.362;10.908;2022-11-14T04:15:43;5.90;90.40
2751;DHT22;1383;48.362;10.908;2022-11-14T04:18:10;5.90;90.20
2751;DHT22;1383;48.362;10.908;2022-11-14T04:20:37;5.80;90.20
2751;DHT22;1383;48.362;10.908;2022-11-14T04:23:03;5.80;90.30
2751;DHT22;1383;48.362;10.908;2022-11-14T04:25:30;5.90;90.50
2751;DHT22;1383;48.362;10.908;2022-11-14T04:27:57;5.90;90.40
2751;DHT22;1383;48.362;10.908;2022-11-14T04:30:24;5.90;90.40
2751;DHT22;1383;48.362;10.908;2022-11-14T04:32:50;6.00;90.10
2751;DHT22;1383;48.362;10.908;2022-11-14T04:35:17;5.90;89.80
2751;DHT22;1383;48.362;10.908;2022-11-14T04:37:44;5.70;89.70
2751;DHT22;1383;48.362;10.908;2022-11-14T04:40:11;5.70;90.60
2751;DHT22;1383;48.362;10.908;2022-11-14T04:42:38;5.80;90.80
2751;DHT22;1383;48.362;10.908;2022-11-14T04:45:05;5.80;90.90
2751;DHT22;1383;48.362;10.908;2022-11-14T04:47:33;5.90;91.10
2751;DHT22;1383;48.362;10.908;2022-11-14T04:50:00;6.00;91.10
2751;DHT22;1383;48.362;10.908;2022-11-14T04:52:26;5.70;90.40
2751;DHT22;1383;48.362;10.908;2022-11-14T04:54:53;5.40;90.90
2751;DHT22;1383;48.362;10.908;2022-11-14T04:57:20;5.40;92.20
2751;DHT22;1383;48.362;10.908;2022-11-14T04:59:47;5.30;92.40
2751;DHT22;1383;48.362;10.908;2022-11-14T05:02:14;5.20;93.20
2751;DHT22;1383;48.362;10.908;2022-11-14T05:04:40;5.40;94.00
2751;DHT22;1383;48.362;10.908;2022-11-14T05:07:09;5.40;93.90
2751;DHT22;1383;48.362;10.908;2022-11-14T05:09:36;5.50;93.70
2751;DHT22;1383;48.362;10.908;2022-11-14T05:12:03;5.60;93.90
2751;DHT22;1383;48.362;10.908;2022-11-14T05:14:30;5.60;93.50
2751;DHT22;1383;48.362;10.908;2022-11-14T05:16:59;5.40;92.40
2751;DHT22;1383;48.362;10.908;2022-11-14T05:19:26;5.50;92.80
2751;DHT22;1383;48.362;10.908;2022-11-14T05:21:53;5.50;92.10
2751;DHT22;1383;48.362;10.908;2022-11-14T05:24:20;5.20;92.00
2751;DHT22;1383;48.362;10.908;2022-11-14T05:26:47;5.30;92.70
2751;DHT22;1383;48.362;10.908;2022-11-14T05:29:13;5.30;92.90
2751;DHT22;1383;48.362;10.908;2022-11-14T05:31:40;5.40;93.30
2751;DHT22;1383;48.362;10.908;2022-11-14T05:34:07;5.40;92.60
2751;DHT22;1383;48.362;10.908;2022-11-14T05:36:34;5.40;92.80
2751;DHT22;1383;48.362;10.908;2022-11-14T05:39:00;5.50;92.70
2751;DHT22;1383;48.362;10.908;2022-11-14T05:41:27;5.50;92.40
2751;DHT22;1383;48.362;10.908;2022-11-14T05:43:54;5.40;91.60
2751;DHT22;1383;48.362;10.908;2022-11-14T05:46:21;5.30;91.70
2751;DHT22;1383;48.362;10.908;2022-11-14T05:48:48;5.20;91.80
2751;DHT22;1383;48.362;10.908;2022-11-14T05:51:14;5.30;91.60
2751;DHT22;1383;48.362;10.908;2022-11-14T05:53:41;5.30;91.80
2751;DHT22;1383;48.362;10.908;2022-11-14T05:56:10;5.30;91.80
2751;DHT22;1383;48.362;10.908;2022-11-14T05:58:38;5.40;91.50
2751;DHT22;1383;48.362;10.908;2022-11-14T06:01:10;5.40;91.40
2751;DHT22;1383;48.362;10.908;2022-11-14T06:03:39;5.20;91.00
2751;DHT22;1383;48.362;10.908;2022-11-14T06:06:09;5.30;91.00
2751;DHT22;1383;48.362;10.908;2022-11-14T06:08:37;5.30;91.10
2751;DHT22;1383;48.362;10.908;2022-11-14T06:11:07;5.40;90.90
2751;DHT22;1383;48.362;10.908;2022-11-14T06:13:34;5.10;90.00
2751;DHT22;1383;48.362;10.908;2022-11-14T06:16:07;5.20;90.30
2751;DHT22;1383;48.362;10.908;2022-11-14T06:18:35;5.20;90.20
2751;DHT22;1383;48.362;10.908;2022-11-14T06:21:11;5.20;90.30
2751;DHT22;1383;48.362;10.908;2022-11-14T06:23:38;5.30;90.00
2751;DHT22;1383;48.362;10.908;2022-11-14T06:26:13;5.20;89.50
2751;DHT22;1383;48.362;10.908;2022-11-14T06:28:40;5.20;88.80
2751;DHT22;1383;48.362;10.908;2022-11-14T06:31:07;5.10;89.30
2751;DHT22;1383;48.362;10.908;2022-11-14T06:33:35;4.80;89.50
2751;DHT22;1383;48.362;10.908;2022-11-14T06:36:04;4.80;90.50
2751;DHT22;1383;48.362;10.908;2022-11-14T06:38:33;4.80;90.70
2751;DHT22;1383;48.362;10.908;2022-11-14T06:41:04;4.70;90.60
2751;DHT22;1383;48.362;10.908;2022-11-14T06:43:36;4.70;91.40
2751;DHT22;1383;48.362;10.908;2022-11-14T06:46:04;4.50;91.10
2751;DHT22;1383;48.362;10.908;2022-11-14T06:48:32;4.50;91.60
2751;DHT22;1383;48.362;10.908;2022-11-14T06:50:59;4.40;91.40
2751;DHT22;1383;48.362;10.908;2022-11-14T06:53:28;4.30;92.30
2751;DHT22;1383;48.362;10.908;2022-11-14T06:56:03;4.20;92.50
2751;DHT22;1383;48.362;10.908;2022-11-14T06:58:33;4.20;93.20
2751;DHT22;1383;48.362;10.908;2022-11-14T07:01:20;4.30;93.50
2751;DHT22;1383;48.362;10.908;2022-11-14T07:03:47;4.30;93.60
2751;DHT22;1383;48.362;10.908;2022-11-14T07:06:25;4.40;94.00
2751;DHT22;1383;48.362;10.908;2022-11-14T07:08:54;4.50;93.80
2751;DHT22;1383;48.362;10.908;2022-11-14T07:11:23;4.40;93.30
2751;DHT22;1383;48.362;10.908;2022-11-14T07:13:56;4.40;93.40
2751;DHT22;1383;48.362;10.908;2022-11-14T07:16:25;4.40;93.50
2751;DHT22;1383;48.362;10.908;2022-11-14T07:18:55;4.50;93.80
2751;DHT22;1383;48.362;10.908;2022-11-14T07:21:23;4.60;93.80
2751;DHT22;1383;48.362;10.908;2022-11-14T07:23:50;4.80;93.20
2751;DHT22;1383;48.362;10.908;2022-11-14T07:26:17;4.80;92.20
2751;DHT22;1383;48.362;10.908;2022-11-14T07:28:44;4.80;91.50
2751;DHT22;1383;48.362;10.908;2022-11-14T07:31:19;4.80;91.40
2751;DHT22;1383;48.362;10.908;2022-11-14T07:33:46;4.90;91.70
2751;DHT22;1383;48.362;10.908;2022-11-14T07:36:14;5.00;90.90
2751;DHT22;1383;48.362;10.908;2022-11-14T07:38:41;5.10;90.70
2751;DHT22;1383;48.362;10.908;2022-11-14T07:41:12;5.00;89.50
2751;DHT22;1383;48.362;10.908;2022-11-14T07:43:40;4.80;88.10
2751;DHT22;1383;48.362;10.908;2022-11-14T07:46:16;4.60;87.80
2751;DHT22;1383;48.362;10.908;2022-11-14T07:48:44;4.70;89.70
2751;DHT22;1383;48.362;10.908;2022-11-14T07:51:16;4.60;90.40
2751;DHT22;1383;48.362;10.908;2022-11-14T07:53:43;4.70;91.20
2751;DHT22;1383;48.362;10.908;2022-11-14T07:56:10;4.70;91.00
2751;DHT22;1383;48.362;10.908;2022-11-14T07:58:39;4.70;90.60
2751;DHT22;1383;48.362;10.908;2022-11-14T08:01:08;4.60;90.10
2751;DHT22;1383;48.362;10.908;2022-11-14T08:03:36;4.70;90.50
2751;DHT22;1383;48.362;10.908;2022-11-14T08:06:12;4.90;90.40
2751;DHT22;1383;48.362;10.908;2022-11-14T08:08:40;5.00;90.00
2751;DHT22;1383;48.362;10.908;2022-11-14T08:11:07;5.10;87.80
2751;DHT22;1383;48.362;10.908;2022-11-14T08:13:34;4.90;86.70
2751;DHT22;1383;48.362;10.908;2022-11-14T08:16:08;5.00;87.00
2751;DHT22;1383;48.362;10.908;2022-11-14T08:18:39;5.20;86.90
2751;DHT22;1383;48.362;10.908;2022-11-14T08:21:06;5.30;86.50
2751;DHT22;1383;48.362;10.908;2022-11-14T08:23:33;5.40;84.90
2751;DHT22;1383;48.362;10.908;2022-11-14T08:26:00;5.30;84.30
2751;DHT22;1383;48.362;10.908;2022-11-14T08:28:27;5.40;84.20
2751;DHT22;1383;48.362;10.908;2022-11-14T08:31:03;5.60;83.90
2751;DHT22;1383;48.362;10.908;2022-11-14T08:33:30;5.80;81.40
2751;DHT22;1383;48.362;10.908;2022-11-14T08:36:04;5.80;80.30
2751;DHT22;1383;48.362;10.908;2022-11-14T08:38:32;5.80;79.10
2751;DHT22;1383;48.362;10.908;2022-11-14T08:41:00;5.70;79.00
2751;DHT22;1383;48.362;10.908;2022-11-14T08:43:30;5.80;79.80
2751;DHT22;1383;48.362;10.908;2022-11-14T08:45:58;5.90;79.60
2751;DHT22;1383;48.362;10.908;2022-11-14T08:48:27;5.80;78.00
2751;DHT22;1383;48.362;10.908;2022-11-14T08:50:55;5.60;80.30
2751;DHT22;1383;48.362;10.908;2022-11-14T08:53:22;5.30;83.10
2751;DHT22;1383;48.362;10.908;2022-11-14T08:55:49;5.30;86.40
2751;DHT22;1383;48.362;10.908;2022-11-14T08:58:15;5.60;87.30
2751;DHT22;1383;48.362;10.908;2022-11-14T09:00:42;5.80;86.40
2751;DHT22;1383;48.362;10.908;2022-11-14T09:03:10;5.60;83.90
2751;DHT22;1383;48.362;10.908;2022-11-14T09:05:39;5.60;85.50
2751;DHT22;1383;48.362;10.908;2022-11-14T09:08:06;5.50;84.30
2751;DHT22;1383;48.362;10.908;2022-11-14T09:10:33;5.30;85.30
2751;DHT22;1383;48.362;10.908;2022-11-14T09:13:01;5.30;88.00
2751;DHT22;1383;48.362;10.908;2022-11-14T09:15:28;5.60;89.90
2751;DHT22;1383;48.362;10.908;2022-11-14T09:17:56;5.80;88.60
2751;DHT22;1383;48.362;10.908;2022-11-14T09:20:23;6.10;85.60
2751;DHT22;1383;48.362;10.908;2022-11-14T09:23:01;6.20;83.80
2751;DHT22;1383;48.362;10.908;2022-11-14T09:25:28;6.50;82.90
2751;DHT22;1383;48.362;10.908;2022-11-14T09:27:56;6.70;78.40
2751;DHT22;1383;48.362;10.908;2022-11-14T09:30:23;6.60;77.10
2751;DHT22;1383;48.362;10.908;2022-11-14T09:32:50;6.80;76.90
2751;DHT22;1383;48.362;10.908;2022-11-14T09:35:16;6.80;76.50
2751;DHT22;1383;48.362;10.908;2022-11-14T09:37:43;6.70;76.40
2751;DHT22;1383;48.362;10.908;2022-11-14T09:40:12;6.90;76.60
2751;DHT22;1383;48.362;10.908;2022-11-14T09:42:50;7.00;76.10
2751;DHT22;1383;48.362;10.908;2022-11-14T09:45:18;7.00;75.10
2751;DHT22;1383;48.362;10.908;2022-11-14T09:47:48;7.00;74.10
2751;DHT22;1383;48.362;10.908;2022-11-14T09:50:25;7.10;72.80
2751;DHT22;1383;48.362;10.908;2022-11-14T09:52:59;7.10;74.30
2751;DHT22;1383;48.362;10.908;2022-11-14T09:55:30;7.20;73.20
2751;DHT22;1383;48.362;10.908;2022-11-14T09:58:03;7.20;73.50
2751;DHT22;1383;48.362;10.908;2022-11-14T10:04:01;7.70;74.80
2751;DHT22;1383;48.362;10.908;2022-11-14T10:06:57;8.10;71.10
2751;DHT22;1383;48.362;10.908;2022-11-14T10:12:12;8.20;65.50
2751;DHT22;1383;48.362;10.908;2022-11-14T10:14:52;8.30;66.20
2751;DHT22;1383;48.362;10.908;2022-11-14T10:20:34;8.60;65.50
2751;DHT22;1383;48.362;10.908;2022-11-14T10:23:06;8.60;63.80
2751;DHT22;1383;48.362;10.908;2022-11-14T10:28:39;9.00;64.40
2751;DHT22;1383;48.362;10.908;2022-11-14T10:31:37;9.30;63.40
2751;DHT22;1383;48.362;10.908;2022-11-14T10:37:17;8.90;61.80
2751;DHT22;1383;48.362;10.908;2022-11-14T10:40:35;8.80;63.30
2751;DHT22;1383;48.362;10.908;2022-11-14T10:46:00;9.20;62.40
2751;DHT22;1383;48.362;10.908;2022-11-14T10:48:35;9.20;62.30
2751;DHT22;1383;48.362;10.908;2022-11-14T10:53:42;9.50;61.10
2751;DHT22;1383;48.362;10.908;2022-11-14T10:56:11;9.10;62.50
2751;DHT22;1383;48.362;10.908;2022-11-14T10:58:38;8.80;64.20
2751;DHT22;1383;48.362;10.908;2022-11-14T11:01:39;8.80;65.60
2751;DHT22;1383;48.362;10.908;2022-11-14T11:04:29;8.90;65.70
2751;DHT22;1383;48.362;10.908;2022-11-14T11:07:22;8.90;66.00
2751;DHT22;1383;48.362;10.908;2022-11-14T11:10:20;8.90;65.60
2751;DHT22;1383;48.362;10.908;2022-11-14T11:13:11;9.10;65.20
2751;DHT22;1383;48.362;10.908;2022-11-14T11:15:40;9.30;63.20
2751;DHT22;1383;48.362;10.908;2022-11-14T11:18:29;9.50;63.00
2751;DHT22;1383;48.362;10.908;2022-11-14T11:21:04;9.60;62.50
2751;DHT22;1383;48.362;10.908;2022-11-14T11:23:32;9.70;61.40
2751;DHT22;1383;48.362;10.908;2022-11-14T11:26:09;9.80;61.00
2751;DHT22;1383;48.362;10.908;2022-11-14T11:28:41;10.00;59.30
2751;DHT22;1383;48.362;10.908;2022-11-14T11:31:09;10.00;58.60
2751;DHT22;1383;48.362;10.908;2022-11-14T11:33:38;10.10;58.20
2751;DHT22;1383;48.362;10.908;2022-11-14T11:36:06;10.10;58.10
2751;DHT22;1383;48.362;10.908;2022-11-14T11:38:37;10.20;57.80
2751;DHT22;1383;48.362;10.908;2022-11-14T11:41:26;10.20;57.70
2751;DHT22;1383;48.362;10.908;2022-11-14T11:44:17;10.20;58.10
2751;DHT22;1383;48.362;10.908;2022-11-14T11:46:55;10.30;58.20
2751;DHT22;1383;48.362;10.908;2022-11-14T11:49:55;10.30;58.40
2751;DHT22;1383;48.362;10.908;2022-11-14T11:52:42;10.40;58.70
2751;DHT22;1383;48.362;10.908;2022-11-14T11:55:17;10.50;59.00
2751;DHT22;1383;48.362;10.908;2022-11-14T11:58:34;10.70;59.10
2751;DHT22;1383;48.362;10.908;2022-11-14T12:00:33;10.90;59.40
2751;DHT22;1383;48.362;10.908;2022-11-14T12:03:00;11.10;58.70
2751;DHT22;1383;48.362;10.908;2022-11-14T12:10:58;11.50;57.40
2751;DHT22;1383;48.362;10.908;2022-11-14T12:22:10;11.80;56.20
2751;DHT22;1383;48.362;10.908;2022-11-14T12:35:47;11.40;56.40
2751;DHT22;1383;48.362;10.908;2022-11-14T12:38:16;11.50;57.20
2751;DHT22;1383;48.362;10.908;2022-11-14T12:40:52;11.50;57.90
2751;DHT22;1383;48.362;10.908;2022-11-14T12:43:35;11.60;57.80
2751;DHT22;1383;48.362;10.908;2022-11-14T12:46:08;11.70;56.80
2751;DHT22;1383;48.362;10.908;2022-11-14T12:48:41;11.70;57.10
2751;DHT22;1383;48.362;10.908;2022-11-14T12:54:01;11.80;56.80
2751;DHT22;1383;48.362;10.908;2022-11-14T13:04:58;11.70;57.90
2751;DHT22;1383;48.362;10.908;2022-11-14T13:10:27;11.70;59.00
2751;DHT22;1383;48.362;10.908;2022-11-14T13:13:11;11.60;59.80
2751;DHT22;1383;48.362;10.908;2022-11-14T13:15:59;11.50;61.10
2751;DHT22;1383;48.362;10.908;2022-11-14T13:19:00;11.40;62.00
2751;DHT22;1383;48.362;10.908;2022-11-14T13:27:33;11.50;62.00
2751;DHT22;1383;48.362;10.908;2022-11-14T13:33:47;11.60;62.10
2751;DHT22;1383;48.362;10.908;2022-11-14T13:36:41;11.50;62.70
2751;DHT22;1383;48.362;10.908;2022-11-14T13:42:06;11.20;65.20
2751;DHT22;1383;48.362;10.908;2022-11-14T13:50:13;11.30;66.20
2751;DHT22;1383;48.362;10.908;2022-11-14T13:52:44;11.30;66.50
2751;DHT22;1383;48.362;10.908;2022-11-14T13:55:22;11.40;65.90
2751;DHT22;1383;48.362;10.908;2022-11-14T14:11:35;11.40;65.20
2751;DHT22;1383;48.362;10.908;2022-11-14T14:14:44;11.30;66.20
2751;DHT22;1383;48.362;10.908;2022-11-14T14:30:32;11.40;68.20
2751;DHT22;1383;48.362;10.908;2022-11-14T14:33:13;11.30;68.90
2751;DHT22;1383;48.362;10.908;2022-11-14T14:35:52;11.30;69.40
2751;DHT22;1383;48.362;10.908;2022-11-14T14:38:25;11.30;70.60
2751;DHT22;1383;48.362;10.908;2022-11-14T14:40:55;11.40;71.00
2751;DHT22;1383;48.362;10.908;2022-11-14T14:43:30;11.30;71.50
2751;DHT22;1383;48.362;10.908;2022-11-14T14:45:57;11.40;71.60
2751;DHT22;1383;48.362;10.908;2022-11-14T14:48:26;11.30;72.30
2751;DHT22;1383;48.362;10.908;2022-11-14T14:50:58;11.40;72.40
2751;DHT22;1383;48.362;10.908;2022-11-14T14:55:54;11.40;71.60
2751;DHT22;1383;48.362;10.908;2022-11-14T14:58:23;11.40;72.00
2751;DHT22;1383;48.362;10.908;2022-11-14T15:00:55;11.50;72.20
2751;DHT22;1383;48.362;10.908;2022-11-14T15:03:26;11.50;71.70
2751;DHT22;1383;48.362;10.908;2022-11-14T15:06:50;11.50;71.90
2751;DHT22;1383;48.362;10.908;2022-11-14T15:08:57;11.50;71.40
2751;DHT22;1383;48.362;10.908;2022-11-14T15:11:25;11.50;72.00
2751;DHT22;1383;48.362;10.908;2022-11-14T15:13:59;11.40;72.10
2751;DHT22;1383;48.362;10.908;2022-11-14T15:16:28;11.40;72.10
2751;DHT22;1383;48.362;10.908;2022-11-14T15:18:56;11.50;71.80
2751;DHT22;1383;48.362;10.908;2022-11-14T15:21:26;11.40;71.80
2751;DHT22;1383;48.362;10.908;2022-11-14T15:24:18;11.40;71.60
2751;DHT22;1383;48.362;10.908;2022-11-14T15:26:47;11.50;71.40
2751;DHT22;1383;48.362;10.908;2022-11-14T15:29:23;11.40;71.70
2751;DHT22;1383;48.362;10.908;2022-11-14T15:31:58;11.30;72.20
2751;DHT22;1383;48.362;10.908;2022-11-14T15:34:30;11.30;72.10
2751;DHT22;1383;48.362;10.908;2022-11-14T15:39:41;11.20;73.30
2751;DHT22;1383;48.362;10.908;2022-11-14T15:42:19;11.20;72.50
2751;DHT22;1383;48.362;10.908;2022-11-14T15:44:47;11.30;73.00
2751;DHT22;1383;48.362;10.908;2022-11-14T15:47:22;11.20;72.70
2751;DHT22;1383;48.362;10.908;2022-11-14T15:50:00;11.30;72.60
2751;DHT22;1383;48.362;10.908;2022-11-14T15:52:35;11.20;72.10
2751;DHT22;1383;48.362;10.908;2022-11-14T15:55:03;11.20;72.60
2751;DHT22;1383;48.362;10.908;2022-11-14T15:57:35;11.10;73.20
2751;DHT22;1383;48.362;10.908;2022-11-14T16:00:10;11.10;73.40
2751;DHT22;1383;48.362;10.908;2022-11-14T16:02:52;11.10;73.20
2751;DHT22;1383;48.362;10.908;2022-11-14T16:05:26;11.00;74.10
2751;DHT22;1383;48.362;10.908;2022-11-14T16:07:53;11.00;74.30
2751;DHT22;1383;48.362;10.908;2022-11-14T16:10:25;10.90;75.00
2751;DHT22;1383;48.362;10.908;2022-11-14T16:12:52;10.80;75.90
2751;DHT22;1383;48.362;10.908;2022-11-14T16:15:20;10.70;76.00
2751;DHT22;1383;48.362;10.908;2022-11-14T16:17:48;10.60;76.80
2751;DHT22;1383;48.362;10.908;2022-11-14T16:20:22;10.50;77.80
2751;DHT22;1383;48.362;10.908;2022-11-14T16:22:52;10.50;78.50
2751;DHT22;1383;48.362;10.908;2022-11-14T16:25:25;10.50;78.30
2751;DHT22;1383;48.362;10.908;2022-11-14T16:27:53;10.40;79.70
2751;DHT22;1383;48.362;10.908;2022-11-14T16:30:22;10.30;81.80
2751;DHT22;1383;48.362;10.908;2022-11-14T16:32:50;10.20;81.70
2751;DHT22;1383;48.362;10.908;2022-11-14T16:35:22;10.20;82.10
2751;DHT22;1383;48.362;10.908;2022-11-14T16:37:50;10.20;82.60
2751;DHT22;1383;48.362;10.908;2022-11-14T16:40:19;10.10;82.70
2751;DHT22;1383;48.362;10.908;2022-11-14T16:42:49;10.10;83.30
2751;DHT22;1383;48.362;10.908;2022-11-14T16:45:16;10.00;83.20
2751;DHT22;1383;48.362;10.908;2022-11-14T16:47:43;9.90;85.90
2751;DHT22;1383;48.362;10.908;2022-11-14T16:50:10;9.90;86.50
2751;DHT22;1383;48.362;10.908;2022-11-14T16:52:37;9.90;86.80
2751;DHT22;1383;48.362;10.908;2022-11-14T16:55:08;9.90;86.40
2751;DHT22;1383;48.362;10.908;2022-11-14T16:57:36;9.80;87.70
2751;DHT22;1383;48.362;10.908;2022-11-14T17:00:04;9.80;86.70
2751;DHT22;1383;48.362;10.908;2022-11-14T17:02:32;9.80;86.50
2751;DHT22;1383;48.362;10.908;2022-11-14T17:04:58;9.80;87.70
2751;DHT22;1383;48.362;10.908;2022-11-14T17:07:25;9.70;89.10
2751;DHT22;1383;48.362;10.908;2022-11-14T17:09:56;9.70;89.70
2751;DHT22;1383;48.362;10.908;2022-11-14T17:12:23;9.60;90.20
2751;DHT22;1383;48.362;10.908;2022-11-14T17:14:49;9.60;90.30
2751;DHT22;1383;48.362;10.908;2022-11-14T17:17:16;9.60;90.20
2751;DHT22;1383;48.362;10.908;2022-11-14T17:19:43;9.60;90.30
2751;DHT22;1383;48.362;10.908;2022-11-14T17:22:13;9.60;90.10
2751;DHT22;1383;48.362;10.908;2022-11-14T17:24:40;9.50;90.40
2751;DHT22;1383;48.362;10.908;2022-11-14T17:27:08;9.40;90.50
2751;DHT22;1383;48.362;10.908;2022-11-14T17:29:35;9.40;90.70
2751;DHT22;1383;48.362;10.908;2022-11-14T17:32:02;9.40;91.00
2751;DHT22;1383;48.362;10.908;2022-11-14T17:34:30;9.30;91.30
2751;DHT22;1383;48.362;10.908;2022-11-14T17:36:57;9.20;91.70
2751;DHT22;1383;48.362;10.908;2022-11-14T17:39:27;9.20;91.70
2751;DHT22;1383;48.362;10.908;2022-11-14T17:41:54;9.10;91.90
2751;DHT22;1383;48.362;10.908;2022-11-14T17:44:20;9.10;92.00
2751;DHT22;1383;48.362;10.908;2022-11-14T17:46:47;9.00;92.20
2751;DHT22;1383;48.362;10.908;2022-11-14T17:49:14;9.00;92.40
2751;DHT22;1383;48.362;10.908;2022-11-14T17:51:41;9.00;92.40
2751;DHT22;1383;48.362;10.908;2022-11-14T17:54:07;9.00;92.40
2751;DHT22;1383;48.362;10.908;2022-11-14T17:56:34;8.90;92.30
2751;DHT22;1383;48.362;10.908;2022-11-14T17:59:06;8.80;92.30
2751;DHT22;1383;48.362;10.908;2022-11-14T18:01:33;8.70;92.60
2751;DHT22;1383;48.362;10.908;2022-11-14T18:04:00;8.60;93.20
2751;DHT22;1383;48.362;10.908;2022-11-14T18:06:32;8.70;93.40
2751;DHT22;1383;48.362;10.908;2022-11-14T18:08:59;8.70;93.30
2751;DHT22;1383;48.362;10.908;2022-11-14T18:11:30;8.70;92.90
2751;DHT22;1383;48.362;10.908;2022-11-14T18:13:57;8.60;92.60